createdAt,value
2018-10-16T00:01:39.875Z,24.05
2018-10-16T00:04:08.212Z,24.01
2018-10-16T00:06:36.580Z,24.02
2018-10-16T00:09:07.138Z,24.00
2018-10-16T00:11:35.555Z,24.00
2018-10-16T00:14:03.915Z,23.99
2018-10-16T00:16:32.294Z,23.97
2018-10-16T00:19:00.634Z,23.98
2018-10-16T00:21:28.955Z,23.96
2018-10-16T00:23:57.342Z,23.96
2018-10-16T00:26:25.635Z,23.95
2018-10-16T00:28:53.906Z,23.93
2018-10-16T00:31:22.204Z,23.92
2018-10-16T00:33:50.754Z,23.91
2018-10-16T00:36:19.230Z,23.91
2018-10-16T00:38:47.569Z,23.89
2018-10-16T00:41:15.906Z,23.88
2018-10-16T00:43:44.247Z,23.88
2018-10-16T00:46:12.686Z,23.87
2018-10-16T00:48:40.983Z,23.87
2018-10-16T00:51:09.374Z,23.86
2018-10-16T00:53:37.687Z,23.85
2018-10-16T00:56:06.276Z,23.85
2018-10-16T00:58:34.552Z,23.84
2018-10-16T01:01:02.888Z,23.82
2018-10-16T01:03:31.205Z,23.82
2018-10-16T01:05:59.499Z,23.82
2018-10-16T01:08:28.108Z,23.81
2018-10-16T01:10:56.428Z,23.79
2018-10-16T01:13:24.784Z,23.79
2018-10-16T01:15:53.302Z,23.78
2018-10-16T01:18:21.662Z,23.76
2018-10-16T01:20:50.015Z,23.76
2018-10-16T01:23:18.400Z,23.75
2018-10-16T01:25:46.724Z,23.74
2018-10-16T01:28:15.058Z,23.73
2018-10-16T01:30:44.538Z,23.72
2018-10-16T01:33:13.019Z,23.73
2018-10-16T01:35:41.312Z,23.72
2018-10-16T01:38:09.671Z,23.71
2018-10-16T01:40:37.998Z,23.69
2018-10-16T01:43:06.356Z,23.69
2018-10-16T01:45:34.715Z,23.68
2018-10-16T01:48:03.108Z,23.67
2018-10-16T01:50:31.465Z,23.67
2018-10-16T01:52:59.840Z,23.65
2018-10-16T01:55:28.130Z,23.67
2018-10-16T01:57:56.458Z,23.64
2018-10-16T02:00:24.791Z,23.64
2018-10-16T02:02:53.167Z,23.63
2018-10-16T02:05:21.531Z,23.63
2018-10-16T02:07:49.865Z,23.61
2018-10-16T02:10:18.187Z,23.60
2018-10-16T02:12:46.998Z,23.59
2018-10-16T02:15:15.311Z,23.58
2018-10-16T02:17:43.634Z,23.57
2018-10-16T02:20:11.970Z,23.56
2018-10-16T02:22:40.492Z,23.56
2018-10-16T02:25:09.715Z,23.56
2018-10-16T02:27:38.112Z,23.55
2018-10-16T02:30:06.748Z,23.54
2018-10-16T02:32:35.119Z,23.53
2018-10-16T02:35:03.479Z,23.52
2018-10-16T02:37:31.875Z,23.52
2018-10-16T02:40:00.174Z,23.50
2018-10-16T02:42:28.510Z,23.50
2018-10-16T02:44:56.810Z,23.48
2018-10-16T02:47:25.255Z,23.48
2018-10-16T02:49:53.560Z,23.47
2018-10-16T02:52:21.870Z,23.48
2018-10-16T02:54:50.187Z,23.47
2018-10-16T02:57:18.501Z,23.46
2018-10-16T02:59:46.940Z,23.45
2018-10-16T03:02:15.263Z,23.45
2018-10-16T03:04:43.614Z,23.44
2018-10-16T03:07:11.944Z,23.44
2018-10-16T03:09:40.318Z,23.44
2018-10-16T03:12:08.675Z,23.44
2018-10-16T03:14:37.016Z,23.43
2018-10-16T03:17:05.653Z,23.43
2018-10-16T03:19:33.987Z,23.42
2018-10-16T03:22:02.319Z,23.43
2018-10-16T03:24:30.666Z,23.42
2018-10-16T03:26:59.019Z,23.42
2018-10-16T03:29:27.343Z,23.42
2018-10-16T03:31:55.644Z,23.41
2018-10-16T03:34:24.054Z,23.40
2018-10-16T03:36:52.882Z,23.40
2018-10-16T03:39:21.223Z,23.38
2018-10-16T03:41:49.585Z,23.39
2018-10-16T03:44:18.007Z,23.39
2018-10-16T03:46:46.324Z,23.38
2018-10-16T03:49:14.670Z,23.37
2018-10-16T03:51:43.038Z,23.36
2018-10-16T03:54:11.403Z,23.36
2018-10-16T03:56:39.778Z,23.36
2018-10-16T03:59:08.135Z,23.36
2018-10-16T04:01:36.442Z,23.35
2018-10-16T04:04:05.073Z,23.36
2018-10-16T04:06:33.448Z,23.34
2018-10-16T04:09:01.848Z,23.35
2018-10-16T04:11:30.146Z,23.35
2018-10-16T04:13:58.496Z,23.35
2018-10-16T04:16:27.006Z,23.33
2018-10-16T04:18:55.723Z,23.33
2018-10-16T04:21:28.098Z,23.33
2018-10-16T04:23:56.431Z,23.33
2018-10-16T04:26:24.783Z,23.33
2018-10-16T04:28:53.138Z,23.32
2018-10-16T04:31:21.438Z,23.32
2018-10-16T04:33:49.752Z,23.31
2018-10-16T04:36:18.055Z,23.32
2018-10-16T04:38:46.443Z,23.31
2018-10-16T04:41:14.782Z,23.32
2018-10-16T04:43:43.131Z,23.34
2018-10-16T04:46:11.448Z,23.32
2018-10-16T04:48:39.803Z,23.31
2018-10-16T04:51:08.126Z,23.31
2018-10-16T04:53:36.474Z,23.31
2018-10-16T04:56:04.826Z,23.33
2018-10-16T04:58:33.142Z,23.32
2018-10-16T05:01:01.545Z,23.32
2018-10-16T05:03:29.870Z,23.32
2018-10-16T05:05:59.097Z,23.32
2018-10-16T05:08:27.516Z,23.32
2018-10-16T05:10:55.845Z,23.32
2018-10-16T05:13:24.148Z,23.33
2018-10-16T05:15:52.544Z,23.34
2018-10-16T05:18:20.971Z,23.33
2018-10-16T05:20:49.262Z,23.33
2018-10-16T05:23:17.718Z,23.33
2018-10-16T05:25:46.055Z,23.33
2018-10-16T05:28:14.390Z,23.33
2018-10-16T05:30:42.799Z,23.33
2018-10-16T05:33:11.153Z,23.34
2018-10-16T05:35:39.566Z,23.34
2018-10-16T05:38:07.915Z,23.34
2018-10-16T05:40:36.255Z,23.33
2018-10-16T05:43:04.827Z,23.33
2018-10-16T05:45:34.958Z,23.34
2018-10-16T05:48:03.290Z,23.35
2018-10-16T05:50:32.259Z,23.34
2018-10-16T05:53:00.938Z,23.36
2018-10-16T05:55:29.315Z,23.35
2018-10-16T05:57:57.679Z,23.36
2018-10-16T06:00:36.292Z,23.34
2018-10-16T06:03:04.842Z,23.33
2018-10-16T06:05:33.473Z,23.33
2018-10-16T06:08:01.762Z,23.33
2018-10-16T06:10:30.099Z,23.34
2018-10-16T06:12:58.398Z,23.34
2018-10-16T06:15:26.903Z,23.34
2018-10-16T06:17:55.222Z,23.33
2018-10-16T06:20:23.592Z,23.34
2018-10-16T06:22:51.906Z,23.34
2018-10-16T06:25:20.238Z,23.34
2018-10-16T06:27:48.718Z,23.34
2018-10-16T06:30:17.063Z,23.34
2018-10-16T06:32:45.366Z,23.33
2018-10-16T06:35:13.718Z,23.34
2018-10-16T06:37:42.058Z,23.35
2018-10-16T06:40:11.047Z,23.35
2018-10-16T06:42:39.707Z,23.36
2018-10-16T06:45:09.306Z,23.38
2018-10-16T06:47:37.928Z,23.39
2018-10-16T06:50:09.219Z,23.40
2018-10-16T06:52:39.043Z,23.42
2018-10-16T06:55:07.767Z,23.42
2018-10-16T06:57:36.161Z,23.44
2018-10-16T07:00:05.160Z,23.46
2018-10-16T07:02:33.444Z,23.48
2018-10-16T07:05:01.768Z,23.51
2018-10-16T07:07:30.127Z,23.53
2018-10-16T07:09:58.452Z,23.54
2018-10-16T07:12:26.746Z,23.55
2018-10-16T07:14:55.142Z,23.57
2018-10-16T07:17:23.428Z,23.59
2018-10-16T07:19:51.732Z,23.64
2018-10-16T07:22:20.127Z,23.65
2018-10-16T07:24:48.463Z,23.67
2018-10-16T07:27:16.811Z,23.69
2018-10-16T07:29:45.143Z,23.73
2018-10-16T07:32:13.459Z,23.74
2018-10-16T07:34:41.946Z,23.77
2018-10-16T07:37:10.558Z,23.80
2018-10-16T07:39:38.883Z,23.82
2018-10-16T07:42:07.175Z,23.87
2018-10-16T07:44:35.530Z,23.92
2018-10-16T07:47:03.858Z,23.95
2018-10-16T07:49:32.165Z,23.99
2018-10-16T07:52:00.534Z,24.03
2018-10-16T07:54:28.870Z,24.07
2018-10-16T07:56:57.247Z,24.11
2018-10-16T07:59:25.631Z,24.16
2018-10-16T08:01:54.016Z,24.19
2018-10-16T08:04:22.362Z,24.24
2018-10-16T08:06:50.691Z,24.28
2018-10-16T08:09:19.030Z,24.33
2018-10-16T08:11:48.540Z,24.38
2018-10-16T08:14:18.154Z,24.44
2018-10-16T08:16:47.899Z,24.48
2018-10-16T08:19:16.440Z,24.53
2018-10-16T08:21:45.805Z,24.57
2018-10-16T08:24:14.211Z,24.63
2018-10-16T08:26:42.529Z,24.69
2018-10-16T08:29:10.871Z,24.74
2018-10-16T08:31:39.367Z,24.81
2018-10-16T08:34:07.717Z,24.86
2018-10-16T08:36:36.284Z,24.92
2018-10-16T08:39:25.318Z,24.98
2018-10-16T08:42:34.090Z,25.04
2018-10-16T08:45:15.338Z,25.10
2018-10-16T08:47:55.024Z,25.14
2018-10-16T08:50:35.710Z,25.22
2018-10-16T08:53:04.302Z,25.25
2018-10-16T08:55:32.886Z,25.30
2018-10-16T08:58:01.654Z,25.36
2018-10-16T09:00:31.730Z,25.41
2018-10-16T09:03:00.258Z,25.45
2018-10-16T09:05:28.863Z,25.50
2018-10-16T09:07:57.171Z,25.53
2018-10-16T09:10:25.983Z,25.59
2018-10-16T09:12:54.304Z,25.62
2018-10-16T09:15:23.364Z,25.67
2018-10-16T09:17:51.711Z,25.72
2018-10-16T09:20:20.170Z,25.74
2018-10-16T09:22:48.531Z,25.79
2018-10-16T09:25:17.766Z,25.83
2018-10-16T09:27:46.088Z,25.85
2018-10-16T09:30:14.922Z,25.91
2018-10-16T09:32:43.362Z,25.95
2018-10-16T09:35:12.695Z,25.98
2018-10-16T09:37:41.162Z,26.03
2018-10-16T09:40:11.523Z,26.07
2018-10-16T09:42:39.930Z,26.12
2018-10-16T09:45:09.531Z,26.17
2018-10-16T09:47:37.969Z,26.21
2018-10-16T09:50:06.798Z,26.26
2018-10-16T09:52:35.152Z,26.30
2018-10-16T09:55:03.486Z,26.33
2018-10-16T09:57:31.808Z,26.37
2018-10-16T10:00:00.398Z,26.41
2018-10-16T10:02:28.771Z,26.44
2018-10-16T10:04:57.074Z,26.45
2018-10-16T10:07:25.451Z,26.46
2018-10-16T10:09:53.751Z,26.48
2018-10-16T10:12:22.067Z,26.49
2018-10-16T10:14:50.758Z,26.49
2018-10-16T10:17:19.121Z,26.53
2018-10-16T10:19:47.491Z,26.56
2018-10-16T10:22:15.848Z,26.58
2018-10-16T10:24:44.241Z,26.58
2018-10-16T10:27:12.594Z,26.61
2018-10-16T10:29:40.948Z,26.64
2018-10-16T10:32:09.407Z,26.65
2018-10-16T10:34:37.731Z,26.60
2018-10-16T10:37:06.212Z,26.59
2018-10-16T10:39:34.703Z,26.59
2018-10-16T10:42:03.206Z,26.56
2018-10-16T10:44:31.586Z,26.54
2018-10-16T10:46:59.951Z,26.52
2018-10-16T10:49:28.319Z,26.52
2018-10-16T10:51:56.642Z,26.50
2018-10-16T10:54:25.111Z,26.50
2018-10-16T10:56:54.123Z,26.49
2018-10-16T10:59:22.494Z,26.48
2018-10-16T11:01:51.007Z,26.48
2018-10-16T11:04:19.348Z,26.48
2018-10-16T11:06:47.678Z,26.47
2018-10-16T11:09:16.191Z,26.46
2018-10-16T11:11:49.771Z,26.47
2018-10-16T11:14:18.079Z,26.46
2018-10-16T11:16:46.395Z,26.45
2018-10-16T11:19:14.748Z,26.45
2018-10-16T11:21:43.310Z,26.45
2018-10-16T11:24:11.654Z,26.46
2018-10-16T11:26:40.052Z,26.45
2018-10-16T11:29:08.519Z,26.47
2018-10-16T11:31:37.216Z,26.45
2018-10-16T11:34:05.923Z,26.47
2018-10-16T11:36:34.423Z,26.47
2018-10-16T11:39:03.435Z,26.46
2018-10-16T11:41:31.784Z,26.47
2018-10-16T11:44:00.160Z,26.48
2018-10-16T11:46:28.752Z,26.48
2018-10-16T11:48:57.876Z,26.49
2018-10-16T11:51:26.329Z,26.48
2018-10-16T11:53:54.779Z,26.48
2018-10-16T11:56:23.212Z,26.49
2018-10-16T11:58:51.583Z,26.49
2018-10-16T12:01:19.954Z,26.50
2018-10-16T12:03:48.444Z,26.50
2018-10-16T12:06:16.931Z,26.51
2018-10-16T12:08:45.695Z,26.52
2018-10-16T12:11:14.286Z,26.51
2018-10-16T12:13:42.659Z,26.52
2018-10-16T12:16:11.006Z,26.50
2018-10-16T12:19:01.193Z,26.52
2018-10-16T12:21:29.834Z,26.52
2018-10-16T12:23:58.331Z,26.51
2018-10-16T12:26:26.740Z,26.52
2018-10-16T12:28:55.207Z,26.53
2018-10-16T12:31:23.622Z,26.52
2018-10-16T12:33:52.062Z,26.54
2018-10-16T12:36:20.567Z,26.53
2018-10-16T12:38:49.005Z,26.52
2018-10-16T12:41:17.581Z,26.50
2018-10-16T12:43:46.069Z,26.50
2018-10-16T12:46:14.580Z,26.51
2018-10-16T12:48:42.995Z,26.51
2018-10-16T12:51:11.463Z,26.50
2018-10-16T12:53:39.783Z,26.50
2018-10-16T12:56:08.148Z,26.50
2018-10-16T12:58:36.531Z,26.49
2018-10-16T13:01:06.098Z,26.49
2018-10-16T13:03:34.538Z,26.49
2018-10-16T13:06:03.205Z,26.49
2018-10-16T13:08:31.661Z,26.49
2018-10-16T13:11:00.201Z,26.47
2018-10-16T13:13:28.707Z,26.45
2018-10-16T13:15:57.121Z,26.47
2018-10-16T13:18:25.419Z,26.47
2018-10-16T13:20:53.858Z,26.46
2018-10-16T13:23:22.292Z,26.48
2018-10-16T13:25:50.631Z,26.48
2018-10-16T13:28:19.042Z,26.48
2018-10-16T13:30:47.381Z,26.48
2018-10-16T13:33:15.704Z,26.48
2018-10-16T13:35:44.182Z,26.47
2018-10-16T13:38:12.597Z,26.47
2018-10-16T13:40:40.872Z,26.47
2018-10-16T13:43:09.384Z,26.47
2018-10-16T13:45:37.723Z,26.45
2018-10-16T13:48:06.713Z,26.46
2018-10-16T13:50:35.095Z,26.45
2018-10-16T13:53:03.492Z,26.45
2018-10-16T13:55:31.862Z,26.45
2018-10-16T13:58:00.298Z,26.45
2018-10-16T14:00:28.770Z,26.45
2018-10-16T14:02:57.071Z,26.44
2018-10-16T14:05:25.575Z,26.42
2018-10-16T14:07:53.983Z,26.44
2018-10-16T14:10:22.420Z,26.42
2018-10-16T14:12:50.855Z,26.42
2018-10-16T14:15:19.459Z,26.41
2018-10-16T14:17:47.862Z,26.41
2018-10-16T14:20:16.246Z,26.42
2018-10-16T14:22:44.664Z,26.41
2018-10-16T14:25:14.371Z,26.40
2018-10-16T14:27:43.040Z,26.39
2018-10-16T14:30:13.000Z,26.40
2018-10-16T14:32:41.944Z,26.38
2018-10-16T14:35:10.962Z,26.38
2018-10-16T14:37:39.705Z,26.37
2018-10-16T14:40:09.652Z,26.37
2018-10-16T14:42:38.013Z,26.37
2018-10-16T14:45:07.529Z,26.35
2018-10-16T14:47:35.882Z,26.35
2018-10-16T14:50:04.703Z,26.34
2018-10-16T14:52:33.032Z,26.33
2018-10-16T14:55:01.464Z,26.34
2018-10-16T14:57:29.811Z,26.34
2018-10-16T14:59:58.259Z,26.34
2018-10-16T15:02:26.695Z,26.33
2018-10-16T15:04:55.186Z,26.32
2018-10-16T15:07:23.914Z,26.33
2018-10-16T15:09:52.554Z,26.32
2018-10-16T15:12:25.265Z,26.32
2018-10-16T15:14:54.426Z,26.32
2018-10-16T15:17:23.032Z,26.32
2018-10-16T15:19:51.680Z,26.31
2018-10-16T15:22:20.203Z,26.29
2018-10-16T15:24:48.639Z,26.28
2018-10-16T15:27:17.182Z,26.26
2018-10-16T15:29:45.719Z,26.25
2018-10-16T15:32:14.718Z,26.23
2018-10-16T15:34:43.763Z,26.21
2018-10-16T15:37:12.674Z,26.20
2018-10-16T15:39:41.302Z,26.18
2018-10-16T15:42:09.854Z,26.15
2018-10-16T15:44:38.194Z,26.14
2018-10-16T15:47:06.559Z,26.13
2018-10-16T15:49:34.971Z,26.12
2018-10-16T15:52:03.311Z,26.09
2018-10-16T15:54:31.609Z,26.08
2018-10-16T15:57:00.023Z,26.05
2018-10-16T15:59:28.417Z,26.04
2018-10-16T16:01:56.744Z,26.02
2018-10-16T16:04:25.096Z,26.01
2018-10-16T16:06:53.589Z,25.99
2018-10-16T16:09:22.869Z,25.97
2018-10-16T16:11:51.295Z,25.96
2018-10-16T16:14:19.631Z,25.96
2018-10-16T16:16:47.998Z,25.93
2018-10-16T16:19:16.428Z,25.91
2018-10-16T16:21:45.614Z,25.88
2018-10-16T16:24:14.018Z,25.88
2018-10-16T16:26:42.427Z,25.85
2018-10-16T16:29:10.743Z,25.83
2018-10-16T16:31:39.169Z,25.82
2018-10-16T16:34:07.563Z,25.81
2018-10-16T16:36:35.986Z,25.79
2018-10-16T16:39:06.417Z,25.76
2018-10-16T16:41:34.782Z,25.74
2018-10-16T16:44:03.281Z,25.72
2018-10-16T16:46:31.595Z,25.71
2018-10-16T16:48:59.924Z,25.69
2018-10-16T16:51:28.282Z,25.68
2018-10-16T16:53:56.637Z,25.65
2018-10-16T16:56:25.039Z,25.63
2018-10-16T16:58:53.442Z,25.61
2018-10-16T17:01:21.776Z,25.60
2018-10-16T17:03:50.246Z,25.60
2018-10-16T17:06:18.570Z,25.57
2018-10-16T17:08:47.771Z,25.56
2018-10-16T17:11:16.291Z,25.55
2018-10-16T17:13:44.654Z,25.53
2018-10-16T17:16:13.120Z,25.52
2018-10-16T17:18:41.479Z,25.50
2018-10-16T17:21:11.644Z,25.49
2018-10-16T17:23:40.199Z,25.48
2018-10-16T17:26:08.934Z,25.47
2018-10-16T17:28:37.351Z,25.46
2018-10-16T17:31:06.110Z,25.46
2018-10-16T17:33:34.614Z,25.44
2018-10-16T17:36:03.180Z,25.43
2018-10-16T17:38:32.264Z,25.43
2018-10-16T17:41:00.731Z,25.41
2018-10-16T17:43:29.145Z,25.42
2018-10-16T17:45:58.244Z,25.42
2018-10-16T17:48:26.664Z,25.40
2018-10-16T17:50:55.081Z,25.42
2018-10-16T17:53:23.435Z,25.41
2018-10-16T17:55:51.807Z,25.39
2018-10-16T17:58:22.072Z,25.40
2018-10-16T18:00:52.359Z,25.40
2018-10-16T18:03:21.471Z,25.41
2018-10-16T18:05:49.807Z,25.41
2018-10-16T18:08:18.235Z,25.40
2018-10-16T18:10:46.602Z,25.40
2018-10-16T18:13:15.013Z,25.39
2018-10-16T18:15:43.459Z,25.38
2018-10-16T18:18:11.840Z,25.36
2018-10-16T18:20:40.907Z,25.36
2018-10-16T18:23:10.048Z,25.36
2018-10-16T18:25:38.375Z,25.37
2018-10-16T18:28:06.784Z,25.36
2018-10-16T18:30:35.183Z,25.37
2018-10-16T18:33:03.607Z,25.38
2018-10-16T18:35:31.962Z,25.39
2018-10-16T18:38:00.279Z,25.37
2018-10-16T18:40:28.599Z,25.37
2018-10-16T18:42:56.968Z,25.37
2018-10-16T18:45:25.310Z,25.37
2018-10-16T18:47:54.172Z,25.36
2018-10-16T18:50:22.466Z,25.35
2018-10-16T18:52:50.879Z,25.35
2018-10-16T18:55:19.235Z,25.34
2018-10-16T18:57:47.596Z,25.33
2018-10-16T19:00:18.243Z,25.33
2018-10-16T19:02:47.487Z,25.33
2018-10-16T19:05:15.980Z,25.32
2018-10-16T19:07:44.334Z,25.31
2018-10-16T19:10:12.693Z,25.30
2018-10-16T19:12:41.842Z,25.29
2018-10-16T19:15:11.761Z,25.28
2018-10-16T19:17:40.215Z,25.27
2018-10-16T19:20:10.617Z,25.27
2018-10-16T19:22:39.361Z,25.26
2018-10-16T19:25:08.739Z,25.26
2018-10-16T19:27:37.217Z,25.25
2018-10-16T19:30:06.790Z,25.25
2018-10-16T19:32:35.265Z,25.22
2018-10-16T19:35:03.775Z,25.22
2018-10-16T19:37:32.363Z,25.21
2018-10-16T19:40:00.748Z,25.21
2018-10-16T19:42:29.097Z,25.21
2018-10-16T19:44:57.453Z,25.20
2018-10-16T19:47:25.818Z,25.18
2018-10-16T19:49:54.150Z,25.19
2018-10-16T19:52:22.486Z,25.18
2018-10-16T19:54:50.879Z,25.17
2018-10-16T19:57:19.232Z,25.17
2018-10-16T19:59:47.822Z,25.16
2018-10-16T20:02:16.223Z,25.15
2018-10-16T20:04:44.607Z,25.15
2018-10-16T20:07:12.922Z,25.13
2018-10-16T20:09:41.432Z,25.13
2018-10-16T20:12:09.871Z,25.13
2018-10-16T20:14:38.279Z,25.12
2018-10-16T20:17:06.713Z,25.10
2018-10-16T20:19:35.157Z,25.09
2018-10-16T20:22:03.573Z,25.10
2018-10-16T20:24:32.003Z,25.07
2018-10-16T20:27:00.326Z,25.08
2018-10-16T20:29:28.663Z,25.07
2018-10-16T20:31:56.959Z,25.06
2018-10-16T20:34:25.381Z,25.05
2018-10-16T20:36:53.744Z,25.05
2018-10-16T20:39:22.152Z,25.04
2018-10-16T20:41:50.633Z,25.04
2018-10-16T20:44:18.926Z,25.02
2018-10-16T20:46:47.399Z,25.00
2018-10-16T20:49:15.884Z,25.00
2018-10-16T20:51:44.351Z,24.99
2018-10-16T20:54:12.806Z,24.98
2018-10-16T20:56:41.161Z,24.98
2018-10-16T20:59:09.557Z,24.97
2018-10-16T21:01:38.050Z,24.96
2018-10-16T21:04:06.455Z,24.95
2018-10-16T21:06:35.168Z,24.94
2018-10-16T21:09:03.494Z,24.94
2018-10-16T21:11:31.846Z,24.92
2018-10-16T21:14:00.174Z,24.89
2018-10-16T21:16:28.611Z,24.89
2018-10-16T21:18:56.968Z,24.88
2018-10-16T21:21:25.395Z,24.88
2018-10-16T21:23:53.779Z,24.86
2018-10-16T21:26:22.153Z,24.86
2018-10-16T21:28:50.549Z,24.84
2018-10-16T21:31:19.003Z,24.83
2018-10-16T21:33:47.356Z,24.82
2018-10-16T21:36:15.723Z,24.80
2018-10-16T21:38:44.074Z,24.79
2018-10-16T21:41:12.634Z,24.76
2018-10-16T21:43:41.174Z,24.76
2018-10-16T21:46:09.567Z,24.74
2018-10-16T21:48:38.395Z,24.73
2018-10-16T21:51:06.873Z,24.72
2018-10-16T21:53:35.458Z,24.71
2018-10-16T21:56:04.114Z,24.69
2018-10-16T21:58:32.712Z,24.68
2018-10-16T22:01:06.708Z,24.67
2018-10-16T22:03:35.033Z,24.65
2018-10-16T22:06:03.431Z,24.64
2018-10-16T22:08:31.870Z,24.62
2018-10-16T22:11:00.274Z,24.61
2018-10-16T22:13:28.674Z,24.60
2018-10-16T22:15:57.215Z,24.57
2018-10-16T22:18:25.645Z,24.58
2018-10-16T22:20:54.098Z,24.54
2018-10-16T22:23:22.565Z,24.52
2018-10-16T22:25:51.027Z,24.52
2018-10-16T22:28:19.594Z,24.50
2018-10-16T22:30:48.034Z,24.48
2018-10-16T22:33:16.490Z,24.47
2018-10-16T22:35:45.052Z,24.46
2018-10-16T22:38:13.536Z,24.45
2018-10-16T22:40:42.529Z,24.44
2018-10-16T22:43:10.875Z,24.42
2018-10-16T22:45:39.257Z,24.41
2018-10-16T22:48:07.558Z,24.40
2018-10-16T22:50:36.038Z,24.39
2018-10-16T22:53:04.417Z,24.37
2018-10-16T22:55:32.698Z,24.36
2018-10-16T22:58:01.022Z,24.35
2018-10-16T23:00:29.493Z,24.34
2018-10-16T23:02:58.939Z,24.33
2018-10-16T23:05:27.474Z,24.32
2018-10-16T23:07:56.109Z,24.30
2018-10-16T23:10:24.614Z,24.30
2018-10-16T23:12:58.365Z,24.28
2018-10-16T23:15:26.886Z,24.27
2018-10-16T23:17:55.415Z,24.26
2018-10-16T23:20:23.893Z,24.24
2018-10-16T23:22:52.257Z,24.23
2018-10-16T23:25:20.594Z,24.22
2018-10-16T23:27:48.898Z,24.21
2018-10-16T23:30:17.350Z,24.20
2018-10-16T23:32:46.615Z,24.18
2018-10-16T23:35:15.135Z,24.18
2018-10-16T23:37:43.382Z,24.16
2018-10-16T23:40:11.767Z,24.16
2018-10-16T23:42:40.209Z,24.14
2018-10-16T23:45:08.602Z,24.14
2018-10-16T23:47:37.001Z,24.13
2018-10-16T23:50:05.657Z,24.13
2018-10-16T23:52:34.052Z,24.11
2018-10-16T23:55:02.600Z,24.09
2018-10-16T23:57:31.124Z,24.08
2018-10-16T23:59:59.653Z,24.08
